createdAt,value
2022-09-02T00:00:01.790Z,15.6
2022-09-02T00:01:01.361Z,15.5
2022-09-02T00:02:02.088Z,15.6
2022-09-02T00:03:01.765Z,15.5
2022-09-02T00:04:02.180Z,15.5
2022-09-02T00:05:01.751Z,15.5
2022-09-02T00:06:01.325Z,15.5
2022-09-02T00:07:01.914Z,15.5
2022-09-02T00:08:01.499Z,15.5
2022-09-02T00:09:02.069Z,15.4
2022-09-02T00:10:01.644Z,15.4
2022-09-02T00:11:02.215Z,15.3
2022-09-02T00:12:02.028Z,15.3
2022-09-02T00:13:01.465Z,15.3
2022-09-02T00:14:02.039Z,15.3
2022-09-02T00:15:01.646Z,15.3
2022-09-02T00:16:02.222Z,15.2
2022-09-02T00:17:01.880Z,15.1
2022-09-02T00:18:01.419Z,15.2
2022-09-02T00:19:01.992Z,15.1
2022-09-02T00:20:01.582Z,15
2022-09-02T00:21:02.149Z,15
2022-09-02T00:22:01.720Z,14.8
2022-09-02T00:23:01.292Z,14.7
2022-09-02T00:24:01.868Z,14.7
2022-09-02T00:25:01.462Z,14.6
2022-09-02T00:26:02.024Z,14.6
2022-09-02T00:27:01.616Z,14.6
2022-09-02T00:28:02.169Z,14.7
2022-09-02T00:29:01.756Z,14.7
2022-09-02T00:30:01.380Z,14.8
2022-09-02T00:31:01.989Z,14.8
2022-09-02T00:32:01.652Z,14.7
2022-09-02T00:33:02.151Z,14.7
2022-09-02T00:34:01.724Z,14.7
2022-09-02T00:35:01.321Z,14.7
2022-09-02T00:36:01.887Z,14.6
2022-09-02T00:37:01.458Z,14.5
2022-09-02T00:38:02.031Z,14.4
2022-09-02T00:39:01.602Z,14.5
2022-09-02T00:40:02.195Z,14.3
2022-09-02T00:41:01.772Z,14.3
2022-09-02T00:42:01.345Z,14.3
2022-09-02T00:43:01.921Z,14.3
2022-09-02T00:44:01.568Z,14.3
2022-09-02T00:45:02.160Z,14.3
2022-09-02T00:46:01.812Z,14.3
2022-09-02T00:47:01.318Z,14.2
2022-09-02T00:48:01.890Z,14
2022-09-02T00:49:01.462Z,14
2022-09-02T00:50:02.038Z,14.1
2022-09-02T00:51:01.632Z,14.2
2022-09-02T00:52:02.194Z,14.2
2022-09-02T00:53:01.990Z,14.2
2022-09-02T00:54:01.440Z,14.2
2022-09-02T00:55:02.011Z,14.2
2022-09-02T00:56:01.604Z,14.1
2022-09-02T00:57:02.170Z,14
2022-09-02T00:58:01.742Z,13.9
2022-09-02T00:59:01.318Z,13.9
2022-09-02T01:00:01.891Z,14
2022-09-02T01:01:01.595Z,13.8
2022-09-02T01:02:02.210Z,13.8
2022-09-02T01:03:01.728Z,13.6
2022-09-02T01:04:01.304Z,13.5
2022-09-02T01:05:01.877Z,13.5
2022-09-02T01:06:01.472Z,13.5
2022-09-02T01:07:02.040Z,13.5
2022-09-02T01:08:01.620Z,13.6
2022-09-02T01:09:02.196Z,13.8
2022-09-02T01:10:01.875Z,13.8
2022-09-02T01:11:01.453Z,13.8
2022-09-02T01:12:02.017Z,13.7
2022-09-02T01:13:01.606Z,13.7
2022-09-02T01:14:02.172Z,13.7
2022-09-02T01:15:01.744Z,13.8
2022-09-02T01:16:01.362Z,13.8
2022-09-02T01:17:01.902Z,13.6
2022-09-02T01:18:01.491Z,13.5
2022-09-02T01:19:02.063Z,13.6
2022-09-02T01:20:01.638Z,13.5
2022-09-02T01:21:02.212Z,13.6
2022-09-02T01:22:01.789Z,13.7
2022-09-02T01:23:01.384Z,13.7
2022-09-02T01:24:01.953Z,13.5
2022-09-02T01:25:01.528Z,13.5
2022-09-02T01:26:02.108Z,13.6
2022-09-02T01:27:01.682Z,13.3
2022-09-02T01:28:01.283Z,13.4
2022-09-02T01:29:01.852Z,13.4
2022-09-02T01:30:01.434Z,13.5
2022-09-02T01:31:02.065Z,13.5
2022-09-02T01:32:01.707Z,13.5
2022-09-02T01:33:01.269Z,13.6
2022-09-02T01:34:01.854Z,13.6
2022-09-02T01:35:01.430Z,13.6
2022-09-02T01:36:02.005Z,13.6
2022-09-02T01:37:01.585Z,13.6
2022-09-02T01:38:02.159Z,13.5
2022-09-02T01:39:01.750Z,13.5
2022-09-02T01:40:01.326Z,13.5
2022-09-02T01:41:01.901Z,13.4
2022-09-02T01:42:01.476Z,13.4
2022-09-02T01:43:02.052Z,13.5
2022-09-02T01:44:01.640Z,13.3
2022-09-02T01:45:02.210Z,13.4
2022-09-02T01:46:01.782Z,13.4
2022-09-02T01:47:01.428Z,13.5
2022-09-02T01:48:01.939Z,13.3
2022-09-02T01:49:01.531Z,13.4
2022-09-02T01:50:02.112Z,13.4
2022-09-02T01:51:01.686Z,13.5
2022-09-02T01:52:01.258Z,13.5
2022-09-02T01:53:01.833Z,13.5
2022-09-02T01:54:01.422Z,13.4
2022-09-02T01:55:01.997Z,13.5
2022-09-02T01:56:01.573Z,13.4
2022-09-02T01:57:02.143Z,13.4
2022-09-02T01:58:01.715Z,13.4
2022-09-02T01:59:01.288Z,13.2
2022-09-02T02:00:01.883Z,13.3
2022-09-02T02:01:02.265Z,13.4
2022-09-02T02:02:01.938Z,13.3
2022-09-02T02:03:01.534Z,13.1
2022-09-02T02:04:02.116Z,13.1
2022-09-02T02:05:01.712Z,13.3
2022-09-02T02:06:01.274Z,13.2
2022-09-02T02:07:01.848Z,13.2
2022-09-02T02:08:01.421Z,13.2
2022-09-02T02:09:01.997Z,13.2
2022-09-02T02:10:01.597Z,13.4
2022-09-02T02:11:02.176Z,13.3
2022-09-02T02:12:01.749Z,13.3
2022-09-02T02:13:01.324Z,13.2
2022-09-02T02:14:01.897Z,13.3
2022-09-02T02:15:01.471Z,13.3
2022-09-02T02:16:02.158Z,13.3
2022-09-02T02:17:01.703Z,13.4
2022-09-02T02:18:01.277Z,13.2
2022-09-02T02:19:01.852Z,13.2
2022-09-02T02:20:01.427Z,13.1
2022-09-02T02:21:02.018Z,13.3
2022-09-02T02:22:01.592Z,13.2
2022-09-02T02:23:02.163Z,13.1
2022-09-02T02:24:01.737Z,13.2
2022-09-02T02:25:01.311Z,13.1
2022-09-02T02:26:01.902Z,13
2022-09-02T02:27:01.479Z,13.1
2022-09-02T02:28:02.518Z,13.1
2022-09-02T02:29:01.261Z,13.1
2022-09-02T02:30:01.837Z,13.1
2022-09-02T02:31:01.459Z,13.1
2022-09-02T02:32:02.042Z,13.2
2022-09-02T02:33:01.633Z,13.2
2022-09-02T02:34:02.199Z,13.2
2022-09-02T02:35:01.777Z,13.2
2022-09-02T02:36:01.355Z,13.3
2022-09-02T02:37:01.948Z,13.3
2022-09-02T02:38:03.738Z,13.2
2022-09-02T02:39:02.076Z,13.2
2022-09-02T02:40:01.647Z,13.2
2022-09-02T02:41:02.219Z,13.3
2022-09-02T02:42:01.811Z,13.2
2022-09-02T02:43:01.388Z,13.2
2022-09-02T02:44:01.972Z,13.2
2022-09-02T02:45:01.563Z,13.1
2022-09-02T02:46:02.119Z,13
2022-09-02T02:47:01.754Z,13
2022-09-02T02:48:01.277Z,13.1
2022-09-02T02:49:01.849Z,13
2022-09-02T02:50:01.439Z,13.1
2022-09-02T02:51:02.009Z,13
2022-09-02T02:52:01.580Z,13.1
2022-09-02T02:53:02.152Z,13.1
2022-09-02T02:54:01.725Z,13.1
2022-09-02T02:55:01.316Z,13
2022-09-02T02:56:01.886Z,13.1
2022-09-02T02:57:01.459Z,13.1
2022-09-02T02:58:01.751Z,13.2
2022-09-02T02:59:01.325Z,13.2
2022-09-02T03:00:01.920Z,13.1
2022-09-02T03:01:01.501Z,13.1
2022-09-02T03:02:02.209Z,13.1
2022-09-02T03:03:01.828Z,13
2022-09-02T03:04:01.324Z,12.9
2022-09-02T03:05:01.911Z,13
2022-09-02T03:06:01.505Z,12.9
2022-09-02T03:07:02.074Z,12.9
2022-09-02T03:08:01.648Z,12.9
2022-09-02T03:09:02.224Z,12.9
2022-09-02T03:10:01.819Z,12.9
2022-09-02T03:11:01.394Z,12.8
2022-09-02T03:12:01.969Z,12.8
2022-09-02T03:13:01.543Z,12.7
2022-09-02T03:14:02.119Z,12.7
2022-09-02T03:15:01.711Z,12.8
2022-09-02T03:16:01.351Z,12.7
2022-09-02T03:17:01.861Z,12.8
2022-09-02T03:18:01.435Z,12.9
2022-09-02T03:19:02.009Z,13
2022-09-02T03:20:01.605Z,13.1
2022-09-02T03:21:02.171Z,13
2022-09-02T03:22:01.762Z,12.9
2022-09-02T03:23:01.326Z,13
2022-09-02T03:24:01.904Z,13.1
2022-09-02T03:25:01.476Z,13.2
2022-09-02T03:26:02.046Z,13.2
2022-09-02T03:27:01.638Z,13.2
2022-09-02T03:28:02.205Z,13.3
2022-09-02T03:29:01.779Z,13.3
2022-09-02T03:30:01.353Z,13.3
2022-09-02T03:31:01.957Z,13.3
2022-09-02T03:32:01.570Z,13.4
2022-09-02T03:33:03.985Z,13.4
2022-09-02T03:34:02.211Z,13.5
2022-09-02T03:35:01.381Z,13.5
2022-09-02T03:36:01.952Z,13.5
2022-09-02T03:37:01.542Z,13.5
2022-09-02T03:38:02.110Z,13.5
2022-09-02T03:39:01.698Z,13.5
2022-09-02T03:40:02.257Z,13.5
2022-09-02T03:41:01.831Z,13.5
2022-09-02T03:42:01.426Z,13.4
2022-09-02T03:43:01.988Z,13.4
2022-09-02T03:44:01.562Z,13.3
2022-09-02T03:45:02.138Z,13.3
2022-09-02T03:46:01.785Z,13.3
2022-09-02T03:47:01.339Z,13.4
2022-09-02T03:48:01.875Z,13.4
2022-09-02T03:49:01.463Z,13.4
2022-09-02T03:50:02.039Z,13.4
2022-09-02T03:51:01.623Z,13.4
2022-09-02T03:52:02.209Z,13.4
2022-09-02T03:53:01.782Z,13.4
2022-09-02T03:54:01.356Z,13.4
2022-09-02T03:55:01.930Z,13.4
2022-09-02T03:56:01.444Z,13.4
2022-09-02T03:57:01.897Z,13.4
2022-09-02T03:58:04.374Z,13.4
2022-09-02T03:59:02.042Z,13.5
2022-09-02T04:00:01.458Z,13.4
2022-09-02T04:01:02.051Z,13.4
2022-09-02T04:02:01.761Z,13.4
2022-09-02T04:03:02.262Z,13.4
2022-09-02T04:04:01.879Z,13.5
2022-09-02T04:05:01.446Z,13.4
2022-09-02T04:06:02.034Z,13.4
2022-09-02T04:07:01.606Z,13.5
2022-09-02T04:08:02.178Z,13.5
2022-09-02T04:09:01.771Z,13.5
2022-09-02T04:10:01.339Z,13.4
2022-09-02T04:11:01.934Z,13.4
2022-09-02T04:12:01.511Z,13.4
2022-09-02T04:13:02.084Z,13.4
2022-09-02T04:14:01.658Z,13.5
2022-09-02T04:15:02.232Z,13.5
2022-09-02T04:16:02.250Z,13.6
2022-09-02T04:17:01.454Z,13.5
2022-09-02T04:18:02.026Z,13.5
2022-09-02T04:19:01.600Z,13.6
2022-09-02T04:20:02.176Z,13.6
2022-09-02T04:21:01.764Z,13.6
2022-09-02T04:22:01.351Z,13.7
2022-09-02T04:23:01.916Z,13.6
2022-09-02T04:24:01.487Z,13.7
2022-09-02T04:25:02.058Z,13.7
2022-09-02T04:26:01.631Z,13.7
2022-09-02T04:27:04.336Z,13.7
2022-09-02T04:28:01.758Z,13.7
2022-09-02T04:29:01.331Z,13.8
2022-09-02T04:30:01.908Z,13.8
2022-09-02T04:31:01.559Z,13.7
2022-09-02T04:32:02.094Z,13.7
2022-09-02T04:33:01.667Z,13.7
2022-09-02T04:34:01.284Z,13.7
2022-09-02T04:35:01.815Z,13.7
2022-09-02T04:36:01.389Z,13.8
2022-09-02T04:37:01.956Z,13.8
2022-09-02T04:38:01.527Z,13.8
2022-09-02T04:39:02.102Z,13.8
2022-09-02T04:40:01.674Z,13.8
2022-09-02T04:41:02.249Z,13.8
2022-09-02T04:42:01.838Z,13.8
2022-09-02T04:43:01.411Z,13.8
2022-09-02T04:44:01.985Z,13.7
2022-09-02T04:45:01.573Z,13.7
2022-09-02T04:46:02.167Z,13.8
2022-09-02T04:47:01.778Z,13.8
2022-09-02T04:48:01.344Z,13.8
2022-09-02T04:49:01.920Z,13.8
2022-09-02T04:50:01.510Z,13.8
2022-09-02T04:51:02.079Z,13.8
2022-09-02T04:52:01.652Z,13.9
2022-09-02T04:53:02.239Z,13.9
2022-09-02T04:54:01.826Z,13.9
2022-09-02T04:55:01.414Z,13.9
2022-09-02T04:56:01.982Z,13.9
2022-09-02T04:57:01.554Z,13.9
2022-09-02T04:58:02.128Z,14
2022-09-02T04:59:01.718Z,14
2022-09-02T05:00:01.285Z,13.9
2022-09-02T05:01:01.932Z,14
2022-09-02T05:02:01.605Z,14.1
2022-09-02T05:03:02.081Z,14
2022-09-02T05:04:01.667Z,14.1
2022-09-02T05:05:02.235Z,14
2022-09-02T05:06:01.808Z,14
2022-09-02T05:07:01.379Z,14
2022-09-02T05:08:01.961Z,14
2022-09-02T05:09:01.552Z,14.1
2022-09-02T05:10:02.107Z,14
2022-09-02T05:11:01.676Z,14.1
2022-09-02T05:12:02.247Z,14.1
2022-09-02T05:13:01.817Z,14.1
2022-09-02T05:14:01.398Z,14.1
2022-09-02T05:15:01.974Z,14.1
2022-09-02T05:16:01.608Z,14.2
2022-09-02T05:17:06.808Z,14.2
2022-09-02T05:18:01.663Z,14.2
2022-09-02T05:19:02.197Z,14.2
2022-09-02T05:20:01.787Z,14.2
2022-09-02T05:21:01.360Z,14.2
2022-09-02T05:22:01.931Z,14.3
2022-09-02T05:23:01.501Z,14.3
2022-09-02T05:24:02.071Z,14.3
2022-09-02T05:25:01.661Z,14.3
2022-09-02T05:26:02.222Z,14.4
2022-09-02T05:27:01.795Z,14.4
2022-09-02T05:28:01.371Z,14.4
2022-09-02T05:29:01.960Z,14.4
2022-09-02T05:30:01.552Z,14.4
2022-09-02T05:31:02.167Z,14.5
2022-09-02T05:32:01.757Z,14.5
2022-09-02T05:33:01.328Z,14.5
2022-09-02T05:34:01.964Z,14.6
2022-09-02T05:35:01.551Z,14.6
2022-09-02T05:36:02.127Z,14.6
2022-09-02T05:37:01.699Z,14.6
2022-09-02T05:38:02.271Z,14.6
2022-09-02T05:39:01.845Z,14.6
2022-09-02T05:40:01.490Z,14.6
2022-09-02T05:41:02.021Z,14.6
2022-09-02T05:42:01.594Z,14.7
2022-09-02T05:43:02.168Z,14.7
2022-09-02T05:44:03.567Z,14.6
2022-09-02T05:45:02.321Z,14.6
2022-09-02T05:46:01.966Z,14.7
2022-09-02T05:47:01.552Z,14.7
2022-09-02T05:48:02.126Z,14.7
2022-09-02T05:49:01.700Z,14.7
2022-09-02T05:50:03.073Z,14.7
2022-09-02T05:51:01.720Z,14.7
2022-09-02T05:52:01.298Z,14.7
2022-09-02T05:53:01.870Z,14.8
2022-09-02T05:54:01.447Z,14.9
2022-09-02T05:55:02.038Z,14.8
2022-09-02T05:56:01.633Z,14.8
2022-09-02T05:57:02.191Z,14.8
2022-09-02T05:58:01.763Z,14.8
2022-09-02T05:59:01.827Z,14.8
2022-09-02T06:00:01.512Z,14.8
2022-09-02T06:01:02.094Z,14.8
2022-09-02T06:02:01.724Z,14.8
2022-09-02T06:03:02.295Z,14.8
2022-09-02T06:04:01.892Z,14.9
2022-09-02T06:05:01.481Z,14.9
2022-09-02T06:06:06.509Z,14.9
2022-09-02T06:07:01.585Z,15
2022-09-02T06:08:02.158Z,15
2022-09-02T06:09:01.731Z,15
2022-09-02T06:10:01.320Z,15
2022-09-02T06:11:01.889Z,15.1
2022-09-02T06:12:01.463Z,15
2022-09-02T06:13:02.038Z,15
2022-09-02T06:14:01.610Z,15.1
2022-09-02T06:15:02.203Z,15.2
2022-09-02T06:16:01.791Z,15.2
2022-09-02T06:17:01.362Z,15.1
2022-09-02T06:18:01.935Z,15.2
2022-09-02T06:19:02.191Z,15.2
2022-09-02T06:20:01.793Z,15.3
2022-09-02T06:21:01.366Z,15.2
2022-09-02T06:22:01.939Z,15.2
2022-09-02T06:23:01.510Z,15.3
2022-09-02T06:24:02.085Z,15.4
2022-09-02T06:25:01.683Z,15.5
2022-09-02T06:26:02.246Z,15.5
2022-09-02T06:27:01.826Z,15.5
2022-09-02T06:28:05.258Z,15.5
2022-09-02T06:29:01.936Z,15.6
2022-09-02T06:30:01.534Z,15.5
2022-09-02T06:31:02.159Z,15.5
2022-09-02T06:32:01.747Z,15.6
2022-09-02T06:33:01.319Z,15.7
2022-09-02T06:34:01.889Z,15.7
2022-09-02T06:35:01.797Z,15.7
2022-09-02T06:36:01.154Z,15.8
2022-09-02T06:37:01.708Z,15.8
2022-09-02T06:38:01.324Z,15.9
2022-09-02T06:39:00.902Z,15.9
2022-09-02T06:40:01.500Z,15.9
2022-09-02T06:41:01.100Z,15.9
2022-09-02T06:42:01.657Z,15.9
2022-09-02T06:43:01.232Z,15.9
2022-09-02T06:44:00.807Z,15.9
2022-09-02T06:45:01.377Z,16.1
2022-09-02T06:46:01.000Z,16
2022-09-02T06:47:01.555Z,16.1
2022-09-02T06:48:01.132Z,16.1
2022-09-02T06:49:01.715Z,16.2
2022-09-02T06:50:01.290Z,16.3
2022-09-02T06:51:00.883Z,16.2
2022-09-02T06:52:01.453Z,16.3
2022-09-02T06:53:01.027Z,16.3
2022-09-02T06:54:01.601Z,16.3
2022-09-02T06:55:01.175Z,16.4
2022-09-02T06:56:01.776Z,16.4
2022-09-02T06:57:01.353Z,16.4
2022-09-02T06:58:00.926Z,16.5
2022-09-02T06:59:01.501Z,16.7
2022-09-02T07:00:02.347Z,16.8
2022-09-02T07:01:01.286Z,16.8
2022-09-02T07:02:01.059Z,16.8
2022-09-02T07:03:01.473Z,16.8
2022-09-02T07:04:01.045Z,16.8
2022-09-02T07:05:01.617Z,16.8
2022-09-02T07:06:01.209Z,16.8
2022-09-02T07:07:01.780Z,16.6
2022-09-02T07:08:01.354Z,16.8
2022-09-02T07:09:00.929Z,16.9
2022-09-02T07:10:01.503Z,17
2022-09-02T07:11:01.096Z,16.8
2022-09-02T07:12:04.534Z,16.8
2022-09-02T07:13:01.201Z,16.8
2022-09-02T07:14:01.787Z,16.8
2022-09-02T07:15:01.376Z,16.9
2022-09-02T07:16:00.968Z,17
2022-09-02T07:17:01.584Z,17.1
2022-09-02T07:18:01.165Z,17.2
2022-09-02T07:19:01.736Z,17.2
2022-09-02T07:20:01.307Z,17.2
2022-09-02T07:21:00.894Z,17.1
2022-09-02T07:22:01.454Z,17.3
2022-09-02T07:23:01.028Z,17.3
2022-09-02T07:24:01.601Z,17.4
2022-09-02T07:25:01.181Z,17.4
2022-09-02T07:26:01.787Z,17.5
2022-09-02T07:27:01.360Z,17.6
2022-09-02T07:28:00.932Z,17.7
2022-09-02T07:29:01.505Z,17.8
2022-09-02T07:30:01.078Z,17.8
2022-09-02T07:31:01.734Z,17.8
2022-09-02T07:32:01.301Z,17.8
2022-09-02T07:33:00.876Z,18
2022-09-02T07:34:01.448Z,18.2
2022-09-02T07:35:01.018Z,18.3
2022-09-02T07:36:01.646Z,18.2
2022-09-02T07:37:04.257Z,18.4
2022-09-02T07:38:01.778Z,18.6
2022-09-02T07:39:01.356Z,18.7
2022-09-02T07:40:00.928Z,18.8
2022-09-02T07:41:01.505Z,18.8
2022-09-02T07:42:00.857Z,19
2022-09-02T07:43:01.430Z,19.1
2022-09-02T07:44:01.007Z,19.3
2022-09-02T07:45:01.585Z,19.4
2022-09-02T07:46:01.218Z,19.4
2022-09-02T07:47:01.758Z,19.3
2022-09-02T07:48:01.330Z,18.8
2022-09-02T07:49:00.922Z,18.7
2022-09-02T07:50:19.442Z,18.4
2022-09-02T07:51:01.031Z,18.3
2022-09-02T07:52:01.625Z,18.3
2022-09-02T07:53:01.196Z,18.3
2022-09-02T07:54:01.765Z,18.5
2022-09-02T07:55:01.334Z,18.4
2022-09-02T07:56:00.902Z,18.5
2022-09-02T07:57:01.493Z,18.4
2022-09-02T07:58:01.062Z,18.4
2022-09-02T07:59:01.629Z,18.3
2022-09-02T08:00:01.198Z,18.3
2022-09-02T08:01:01.875Z,18.3
2022-09-02T08:02:01.616Z,18.3
2022-09-02T08:03:01.148Z,18.3
2022-09-02T08:04:02.843Z,18.4
2022-09-02T08:05:01.126Z,18.3
2022-09-02T08:06:01.697Z,18.4
2022-09-02T08:07:01.286Z,18.5
2022-09-02T08:08:00.852Z,18.6
2022-09-02T08:09:01.429Z,18.7
2022-09-02T08:10:01.004Z,18.7
2022-09-02T08:12:01.167Z,18.8
2022-09-02T08:13:01.741Z,19
2022-09-02T08:14:01.314Z,19
2022-09-02T08:15:00.983Z,19.3
2022-09-02T08:16:01.554Z,19.5
2022-09-02T08:17:01.203Z,19.5
2022-09-02T08:18:01.710Z,19.5
2022-09-02T08:19:01.281Z,19.7
2022-09-02T08:20:00.853Z,19.8
2022-09-02T08:21:01.425Z,19.9
2022-09-02T08:22:01.018Z,19.9
2022-09-02T08:23:10.572Z,19.8
2022-09-02T08:24:01.120Z,19.9
2022-09-02T08:25:00.829Z,20.1
2022-09-02T08:26:01.402Z,20.2
2022-09-02T08:27:00.994Z,20.2
2022-09-02T08:28:01.566Z,20.3
2022-09-02T08:29:01.162Z,20.3
2022-09-02T08:30:01.731Z,20.4
2022-09-02T08:31:01.306Z,20.4
2022-09-02T08:32:00.910Z,20.3
2022-09-02T08:33:01.482Z,20.1
2022-09-02T08:34:01.068Z,20.2
2022-09-02T08:35:01.639Z,20.3
2022-09-02T08:36:01.210Z,20.4
2022-09-02T08:37:00.822Z,20.6
2022-09-02T08:38:01.825Z,20.8
2022-09-02T08:39:00.905Z,20.8
2022-09-02T08:40:01.510Z,20.9
2022-09-02T08:41:01.097Z,20.8
2022-09-02T08:43:01.254Z,20.6
2022-09-02T08:44:00.820Z,20.8
2022-09-02T08:45:01.396Z,20.7
2022-09-02T08:46:01.130Z,20.8
2022-09-02T08:47:01.632Z,20.5
2022-09-02T08:48:01.223Z,20.4
2022-09-02T08:49:01.793Z,20.5
2022-09-02T08:50:01.367Z,20.7
2022-09-02T08:51:00.941Z,20.6
2022-09-02T08:52:01.513Z,20.8
2022-09-02T08:53:01.121Z,20.9
2022-09-02T08:54:01.539Z,21.1
2022-09-02T08:55:01.113Z,21.3
2022-09-02T08:56:01.683Z,21.3
2022-09-02T08:57:01.257Z,21.1
2022-09-02T08:58:00.870Z,21.3
2022-09-02T08:59:01.416Z,21.3
2022-09-02T09:00:01.131Z,21.1
2022-09-02T09:01:01.628Z,21.1
2022-09-02T09:02:01.315Z,21.1
2022-09-02T09:03:01.810Z,21.1
2022-09-02T09:04:01.384Z,21.1
2022-09-02T09:05:00.963Z,21.1
2022-09-02T09:06:01.552Z,21.1
2022-09-02T09:07:01.126Z,21.1
2022-09-02T09:08:01.701Z,21.3
2022-09-02T09:09:01.274Z,21.2
2022-09-02T09:10:00.874Z,20.9
2022-09-02T09:11:01.449Z,20.8
2022-09-02T09:12:01.022Z,20.9
2022-09-02T09:13:01.593Z,21.2
2022-09-02T09:14:01.165Z,21.1
2022-09-02T09:15:01.739Z,21
2022-09-02T09:16:01.352Z,21
2022-09-02T09:17:00.970Z,21.1
2022-09-02T09:18:01.551Z,21.1
2022-09-02T09:19:02.318Z,21
2022-09-02T09:20:01.548Z,21.1
2022-09-02T09:21:01.140Z,20.9
2022-09-02T09:22:01.693Z,20.8
2022-09-02T09:23:01.271Z,20.8
2022-09-02T09:24:00.844Z,20.8
2022-09-02T09:25:01.415Z,20.8
2022-09-02T09:26:01.001Z,21
2022-09-02T09:27:01.571Z,20.9
2022-09-02T09:28:01.147Z,20.8
2022-09-02T09:29:01.718Z,20.9
2022-09-02T09:30:01.293Z,20.9
2022-09-02T09:31:00.885Z,20.9
2022-09-02T09:32:01.540Z,21
2022-09-02T09:33:01.112Z,20.8
2022-09-02T09:34:01.682Z,20.9
2022-09-02T09:35:01.260Z,21.1
2022-09-02T09:36:00.838Z,21.2
2022-09-02T09:37:01.463Z,21.1
2022-09-02T09:38:01.037Z,21.3
2022-09-02T09:39:01.610Z,21.3
2022-09-02T09:40:01.188Z,21.4
2022-09-02T09:41:01.760Z,21.5
2022-09-02T09:42:01.348Z,21.7
2022-09-02T09:44:01.529Z,21.9
2022-09-02T09:45:01.101Z,22
2022-09-02T09:46:01.695Z,22.1
2022-09-02T09:47:01.331Z,22.3
2022-09-02T09:48:00.922Z,22.2
2022-09-02T09:49:01.485Z,22.3
2022-09-02T09:50:01.055Z,22.3
2022-09-02T09:51:01.628Z,22.3
2022-09-02T09:52:01.202Z,22.1
2022-09-02T09:53:01.787Z,22.2
2022-09-02T09:54:01.361Z,22.4
2022-09-02T09:55:00.936Z,22.6
2022-09-02T09:56:01.516Z,22.3
2022-09-02T09:57:01.089Z,22.5
2022-09-02T09:58:01.781Z,22.7
2022-09-02T09:59:01.349Z,23
2022-09-02T10:00:00.917Z,22.9
2022-09-02T10:01:01.523Z,23
2022-09-02T10:02:01.183Z,22.9
2022-09-02T10:03:01.745Z,23.1
2022-09-02T10:04:01.337Z,23.2
2022-09-02T10:05:00.895Z,22.9
2022-09-02T10:06:01.472Z,22.7
2022-09-02T10:07:01.045Z,22.8
2022-09-02T10:08:01.616Z,23
2022-09-02T10:09:01.287Z,23.4
2022-09-02T10:10:00.859Z,23.7
2022-09-02T10:11:01.446Z,23.9
2022-09-02T10:12:01.018Z,24.3
2022-09-02T10:13:01.591Z,23.9
2022-09-02T10:14:01.163Z,23.9
2022-09-02T10:15:01.751Z,24
2022-09-02T10:16:01.354Z,23.8
2022-09-02T10:17:00.912Z,23.8
2022-09-02T10:18:01.500Z,23.7
2022-09-02T10:19:01.076Z,23.5
2022-09-02T10:20:04.579Z,23.6
2022-09-02T10:21:16.651Z,23.8
2022-09-02T10:22:01.736Z,23.6
2022-09-02T10:23:01.309Z,23.5
2022-09-02T10:24:00.879Z,23.6
2022-09-02T10:25:01.467Z,23.7
2022-09-02T10:26:01.037Z,23.8
2022-09-02T10:27:01.624Z,23.8
2022-09-02T10:28:01.196Z,23.8
2022-09-02T10:29:04.075Z,23.7
2022-09-02T10:30:01.319Z,23.8
2022-09-02T10:31:00.888Z,23.8
2022-09-02T10:32:01.459Z,24
2022-09-02T10:33:01.031Z,24
2022-09-02T10:34:01.601Z,24
2022-09-02T10:35:01.188Z,23.5
2022-09-02T10:36:01.747Z,23.7
2022-09-02T10:37:01.329Z,24
2022-09-02T10:38:00.946Z,24.2
2022-09-02T10:39:01.221Z,24.2
2022-09-02T10:40:01.819Z,24.3
2022-09-02T10:41:01.423Z,24
2022-09-02T10:42:01.012Z,24.2
2022-09-02T10:43:01.585Z,24.3
2022-09-02T10:44:01.157Z,24.4
2022-09-02T10:45:01.747Z,24.4
2022-09-02T10:46:01.324Z,24.1
2022-09-02T10:47:00.930Z,23.8
2022-09-02T10:48:01.482Z,23.9
2022-09-02T10:49:01.055Z,24.1
2022-09-02T10:50:01.642Z,24.4
2022-09-02T10:51:01.231Z,24.5
2022-09-02T10:52:01.815Z,24.2
2022-09-02T10:53:01.968Z,24
2022-09-02T10:54:00.928Z,24.2
2022-09-02T10:55:01.507Z,24.2
2022-09-02T10:56:01.095Z,24.2
2022-09-02T10:57:01.661Z,24.1
2022-09-02T10:58:01.317Z,24
2022-09-02T10:59:00.887Z,23.8
2022-09-02T11:00:01.461Z,23.8
2022-09-02T11:01:01.103Z,23.8
2022-09-02T11:02:01.639Z,23.7
2022-09-02T11:03:01.275Z,23.6
2022-09-02T11:04:01.841Z,23.6
2022-09-02T11:05:01.455Z,23.6
2022-09-02T11:06:01.027Z,23.8
2022-09-02T11:07:03.159Z,24
2022-09-02T11:08:01.107Z,24.2
2022-09-02T11:09:01.687Z,24.2
2022-09-02T11:10:01.261Z,24.3
2022-09-02T11:11:01.832Z,24.5
2022-09-02T11:12:01.423Z,24.4
2022-09-02T11:13:00.999Z,24.4
2022-09-02T11:14:01.573Z,24.5
2022-09-02T11:15:01.144Z,24.6
2022-09-02T11:16:01.747Z,24.8
2022-09-02T11:17:01.376Z,24.9
2022-09-02T11:18:01.557Z,25.1
2022-09-02T11:19:01.134Z,25.1
2022-09-02T11:20:01.730Z,25.3
2022-09-02T11:21:01.363Z,25
2022-09-02T11:22:00.967Z,24.9
2022-09-02T11:23:01.532Z,24.8
2022-09-02T11:24:01.187Z,24.7
2022-09-02T11:25:01.836Z,24.7
2022-09-02T11:26:01.398Z,24.8
2022-09-02T11:27:00.991Z,24.9
2022-09-02T11:28:01.545Z,25
2022-09-02T11:29:01.116Z,25
2022-09-02T11:30:01.694Z,24.9
2022-09-02T11:31:01.274Z,24.7
2022-09-02T11:32:00.869Z,24.8
2022-09-02T11:33:01.458Z,24.9
2022-09-02T11:35:01.607Z,25
2022-09-02T11:36:01.263Z,25
2022-09-02T11:37:01.840Z,25.3
2022-09-02T11:38:01.429Z,25.3
2022-09-02T11:39:01.108Z,25.2
2022-09-02T11:40:17.549Z,24.9
2022-09-02T11:42:01.744Z,24.9
2022-09-02T11:43:01.353Z,24.9
2022-09-02T11:44:01.143Z,24.8
2022-09-02T11:45:01.711Z,24.9
2022-09-02T11:46:01.374Z,24.9
2022-09-02T11:47:00.917Z,24.9
2022-09-02T11:48:01.450Z,24.9
2022-09-02T11:49:01.240Z,24.9
2022-09-02T11:50:01.607Z,25
2022-09-02T11:51:01.182Z,25
2022-09-02T11:52:01.946Z,24.8
2022-09-02T11:53:01.415Z,24.8
2022-09-02T11:54:01.008Z,25
2022-09-02T11:55:02.742Z,25.1
2022-09-02T11:56:01.799Z,25.1
2022-09-02T11:57:01.384Z,25
2022-09-02T11:58:01.081Z,25.3
2022-09-02T11:59:01.676Z,25
2022-09-02T12:00:01.276Z,25
2022-09-02T12:01:01.852Z,25.2
2022-09-02T12:02:01.426Z,25.4
2022-09-02T12:03:07.862Z,25.5
2022-09-02T12:05:02.399Z,25.5
2022-09-02T12:06:01.434Z,25.5
2022-09-02T12:07:04.422Z,25.5
2022-09-02T12:08:01.675Z,25.5
2022-09-02T12:09:01.246Z,25.5
2022-09-02T12:10:01.837Z,25.5
2022-09-02T12:11:01.428Z,25.4
2022-09-02T12:12:01.000Z,25.4
2022-09-02T12:13:01.574Z,25.3
2022-09-02T12:14:01.848Z,25.4
2022-09-02T12:15:01.781Z,25.6
2022-09-02T12:16:01.390Z,25.6
2022-09-02T12:17:01.163Z,25.7
2022-09-02T12:18:01.656Z,25.7
2022-09-02T12:19:01.229Z,25.6
2022-09-02T12:20:01.802Z,25.6
2022-09-02T12:21:01.390Z,25.5
2022-09-02T12:22:00.964Z,25.8
2022-09-02T12:23:01.541Z,25.9
2022-09-02T12:24:01.122Z,25.9
2022-09-02T12:25:01.706Z,25.9
2022-09-02T12:26:01.299Z,26.1
2022-09-02T12:27:01.864Z,26
2022-09-02T12:28:01.769Z,26
2022-09-02T12:29:01.109Z,26
2022-09-02T12:30:01.699Z,26
2022-09-02T12:31:01.301Z,26.3
2022-09-02T12:32:01.848Z,26.4
2022-09-02T12:33:01.418Z,26.3
2022-09-02T12:34:00.991Z,26.2
2022-09-02T12:35:01.563Z,26.3
2022-09-02T12:36:01.156Z,26.3
2022-09-02T12:37:01.712Z,26.1
2022-09-02T12:38:01.301Z,26.3
2022-09-02T12:39:01.874Z,26.6
2022-09-02T12:40:01.486Z,26.8
2022-09-02T12:41:01.073Z,27.1
2022-09-02T12:42:01.642Z,27.3
2022-09-02T12:43:01.229Z,27.3
2022-09-02T12:44:01.803Z,27.2
2022-09-02T12:45:01.381Z,27.3
2022-09-02T12:46:00.948Z,27.3
2022-09-02T12:47:01.523Z,27.4
2022-09-02T12:48:01.115Z,27
2022-09-02T12:49:01.674Z,26.9
2022-09-02T12:50:01.331Z,26.7
2022-09-02T12:51:00.903Z,26.8
2022-09-02T12:52:01.489Z,26.8
2022-09-02T12:53:01.062Z,26.8
2022-09-02T12:54:01.635Z,26.8
2022-09-02T12:55:01.207Z,27
2022-09-02T12:56:01.792Z,27
2022-09-02T12:57:01.379Z,27
2022-09-02T12:58:00.946Z,27
2022-09-02T12:59:02.828Z,26.7
2022-09-02T13:00:01.544Z,26.9
2022-09-02T13:01:01.762Z,27
2022-09-02T13:02:01.365Z,27.1
2022-09-02T13:03:00.937Z,27.1
2022-09-02T13:04:01.529Z,26.8
2022-09-02T13:05:01.102Z,26.8
2022-09-02T13:06:01.677Z,26.7
2022-09-02T13:07:01.251Z,26.9
2022-09-02T13:08:02.434Z,27.1
2022-09-02T13:09:01.207Z,27.1
2022-09-02T13:10:01.783Z,27.1
2022-09-02T13:11:01.356Z,27.1
2022-09-02T13:12:00.930Z,27.2
2022-09-02T13:13:01.503Z,27.4
2022-09-02T13:14:01.095Z,27.6
2022-09-02T13:15:01.683Z,27.6
2022-09-02T13:16:01.306Z,27.3
2022-09-02T13:17:13.817Z,27
2022-09-02T13:18:01.398Z,26.9
2022-09-02T13:19:00.971Z,26.7
2022-09-02T13:20:01.557Z,26.7
2022-09-02T13:21:01.129Z,26.9
2022-09-02T13:22:01.229Z,27.2
2022-09-02T13:23:01.410Z,27.6
2022-09-02T13:24:00.970Z,27.2
2022-09-02T13:25:01.621Z,27
2022-09-02T13:26:01.200Z,26.7
2022-09-02T13:27:01.771Z,26.8
2022-09-02T13:28:01.346Z,26.5
2022-09-02T13:29:00.917Z,26.3